createdAt,value
2018-09-30T00:00:32.972Z,92.20
2018-09-30T00:03:14.084Z,92.10
2018-09-30T00:05:55.459Z,92.00
2018-09-30T00:08:37.594Z,92.00
2018-09-30T00:11:18.826Z,91.70
2018-09-30T00:14:00.411Z,91.80
2018-09-30T00:16:42.107Z,91.70
2018-09-30T00:19:24.091Z,91.40
2018-09-30T00:22:05.396Z,91.30
2018-09-30T00:24:51.998Z,91.60
2018-09-30T00:27:33.983Z,91.40
2018-09-30T00:30:15.369Z,91.40
2018-09-30T00:32:56.959Z,91.40
2018-09-30T00:35:38.668Z,91.90
2018-09-30T00:38:20.467Z,92.10
2018-09-30T00:41:02.036Z,92.20
2018-09-30T00:43:43.129Z,92.60
2018-09-30T00:46:24.099Z,92.40
2018-09-30T00:49:05.077Z,92.40
2018-09-30T00:51:46.541Z,92.50
2018-09-30T00:54:27.645Z,92.50
2018-09-30T00:57:09.535Z,92.50
2018-09-30T00:59:50.504Z,92.60
2018-09-30T01:02:31.460Z,92.60
2018-09-30T01:05:12.332Z,92.60
2018-09-30T01:07:53.437Z,92.70
2018-09-30T01:10:34.817Z,92.80
2018-09-30T01:13:15.899Z,92.90
2018-09-30T01:15:57.355Z,93.00
2018-09-30T01:18:39.645Z,93.10
2018-09-30T01:21:21.277Z,93.20
2018-09-30T01:24:02.120Z,93.20
2018-09-30T01:26:43.237Z,93.40
2018-09-30T01:29:24.890Z,93.50
2018-09-30T01:32:06.578Z,93.60
2018-09-30T01:34:48.067Z,93.70
2018-09-30T01:37:30.236Z,93.80
2018-09-30T01:40:11.154Z,94.00
2018-09-30T01:42:52.629Z,94.10
2018-09-30T01:45:34.214Z,94.20
2018-09-30T01:48:15.836Z,94.20
2018-09-30T01:50:56.879Z,94.60
2018-09-30T01:53:38.085Z,94.30
2018-09-30T01:56:20.465Z,94.40
2018-09-30T01:59:02.296Z,94.50
2018-09-30T02:01:43.462Z,94.60
2018-09-30T02:04:25.052Z,94.70
2018-09-30T02:07:06.008Z,94.80
2018-09-30T02:09:47.113Z,94.90
2018-09-30T02:12:28.052Z,95.10
2018-09-30T02:15:10.501Z,95.00
2018-09-30T02:17:51.563Z,95.20
2018-09-30T02:20:33.088Z,95.30
2018-09-30T02:23:14.528Z,95.50
2018-09-30T02:25:55.407Z,95.50
2018-09-30T02:28:36.282Z,95.60
2018-09-30T02:31:18.682Z,95.70
2018-09-30T02:34:00.575Z,96.00
2018-09-30T02:36:42.537Z,96.10
2018-09-30T02:39:23.937Z,96.10
2018-09-30T02:42:05.833Z,96.20
2018-09-30T02:44:47.524Z,96.30
2018-09-30T02:47:29.012Z,96.30
2018-09-30T02:50:11.785Z,96.30
2018-09-30T02:52:54.152Z,96.40
2018-09-30T02:55:35.673Z,96.80
2018-09-30T02:58:17.329Z,96.40
2018-09-30T03:00:59.206Z,96.40
2018-09-30T03:03:40.523Z,96.40
2018-09-30T03:06:26.886Z,96.50
2018-09-30T03:09:15.850Z,96.50
2018-09-30T03:11:57.263Z,96.60
2018-09-30T03:14:38.924Z,96.60
2018-09-30T03:17:19.613Z,96.80
2018-09-30T03:20:01.385Z,96.90
2018-09-30T03:22:42.695Z,97.00
2018-09-30T03:25:23.873Z,97.00
2018-09-30T03:28:05.398Z,97.20
2018-09-30T03:30:46.541Z,97.20
2018-09-30T03:33:28.337Z,97.20
2018-09-30T03:36:09.621Z,97.20
2018-09-30T03:38:52.004Z,97.30
2018-09-30T03:41:32.966Z,97.40
2018-09-30T03:44:14.683Z,97.50
2018-09-30T03:46:56.145Z,97.60
2018-09-30T03:49:38.048Z,97.70
2018-09-30T03:52:19.445Z,97.70
2018-09-30T03:55:00.192Z,97.70
2018-09-30T03:57:41.778Z,97.80
2018-09-30T04:00:23.477Z,97.90
2018-09-30T04:03:05.060Z,97.90
2018-09-30T04:05:46.663Z,98.00
2018-09-30T04:08:28.675Z,98.10
2018-09-30T04:11:10.686Z,98.10
2018-09-30T04:13:52.537Z,98.30
2018-09-30T04:16:33.328Z,98.30
2018-09-30T04:19:14.328Z,98.80
2018-09-30T04:21:56.683Z,98.50
2018-09-30T04:24:38.301Z,98.60
2018-09-30T04:27:19.481Z,98.90
2018-09-30T04:30:01.292Z,98.60
2018-09-30T04:32:42.840Z,98.70
2018-09-30T04:35:24.446Z,98.80
2018-09-30T04:38:06.270Z,98.90
2018-09-30T04:40:47.932Z,99.00
2018-09-30T04:43:29.519Z,99.10
2018-09-30T04:46:11.005Z,99.10
2018-09-30T04:48:52.686Z,99.20
2018-09-30T04:51:34.369Z,99.30
2018-09-30T04:54:15.780Z,99.30
2018-09-30T04:56:57.441Z,99.40
2018-09-30T04:59:39.132Z,99.40
2018-09-30T05:02:20.623Z,99.50
2018-09-30T05:05:02.515Z,99.40
2018-09-30T05:07:44.001Z,99.50
2018-09-30T05:10:25.512Z,99.60
2018-09-30T05:13:07.784Z,99.60
2018-09-30T05:15:49.735Z,99.80
2018-09-30T05:18:31.502Z,99.70
2018-09-30T05:21:12.271Z,99.90
2018-09-30T05:23:53.532Z,99.80
2018-09-30T05:26:34.631Z,99.80
2018-09-30T05:29:17.018Z,99.90
2018-09-30T05:31:58.911Z,99.90
2018-09-30T05:34:39.885Z,99.90
2018-09-30T05:37:21.113Z,99.90
2018-09-30T05:40:02.040Z,99.90
2018-09-30T05:42:43.962Z,99.90
2018-09-30T05:45:25.522Z,99.90
2018-09-30T05:48:06.930Z,99.90
2018-09-30T05:50:48.495Z,99.90
2018-09-30T05:53:30.113Z,99.90
2018-09-30T05:56:11.773Z,99.90
2018-09-30T05:58:54.087Z,99.90
2018-09-30T06:01:35.797Z,99.90
2018-09-30T06:04:17.607Z,99.90
2018-09-30T06:06:59.155Z,99.90
2018-09-30T06:09:40.867Z,99.90
2018-09-30T06:12:22.883Z,99.90
2018-09-30T06:15:04.430Z,99.90
2018-09-30T06:17:46.034Z,99.90
2018-09-30T06:20:30.784Z,99.90
2018-09-30T06:23:12.677Z,99.90
2018-09-30T06:25:54.369Z,99.90
2018-09-30T06:28:36.066Z,99.90
2018-09-30T06:31:17.984Z,99.90
2018-09-30T06:33:59.154Z,99.90
2018-09-30T06:36:40.253Z,99.90
2018-09-30T06:39:21.722Z,99.90
2018-09-30T06:42:03.727Z,99.90
2018-09-30T06:44:45.795Z,99.90
2018-09-30T06:47:27.694Z,99.90
2018-09-30T06:50:09.074Z,99.90
2018-09-30T06:52:50.560Z,99.90
2018-09-30T06:55:32.273Z,99.90
2018-09-30T06:58:14.042Z,99.90
2018-09-30T07:00:55.651Z,99.90
2018-09-30T07:03:38.039Z,99.90
2018-09-30T07:06:18.835Z,99.90
2018-09-30T07:09:00.812Z,99.90
2018-09-30T07:11:42.214Z,99.90
2018-09-30T07:14:22.888Z,99.90
2018-09-30T07:17:04.600Z,99.90
2018-09-30T07:19:45.634Z,99.90
2018-09-30T07:22:27.546Z,99.90
2018-09-30T07:25:09.716Z,99.90
2018-09-30T07:27:51.994Z,99.90
2018-09-30T07:30:33.237Z,99.90
2018-09-30T07:33:15.208Z,99.90
2018-09-30T07:35:56.497Z,99.90
2018-09-30T07:38:38.111Z,99.90
2018-09-30T07:41:19.464Z,99.90
2018-09-30T07:44:01.992Z,99.90
2018-09-30T07:46:43.360Z,99.70
2018-09-30T07:49:24.737Z,99.00
2018-09-30T07:52:06.031Z,96.70
2018-09-30T07:54:47.202Z,97.00
2018-09-30T07:57:28.482Z,96.90
2018-09-30T08:00:10.308Z,96.70
2018-09-30T08:02:51.723Z,96.30
2018-09-30T08:05:32.850Z,95.10
2018-09-30T08:08:14.746Z,94.90
2018-09-30T08:10:56.380Z,94.00
2018-09-30T08:13:38.051Z,93.30
2018-09-30T08:16:19.464Z,92.80
2018-09-30T08:19:00.368Z,90.90
2018-09-30T08:21:41.135Z,90.40
2018-09-30T08:24:22.712Z,90.10
2018-09-30T08:27:04.034Z,87.50
2018-09-30T08:29:45.500Z,86.70
2018-09-30T08:32:27.612Z,86.70
2018-09-30T08:35:08.691Z,84.30
2018-09-30T08:37:55.991Z,81.20
2018-09-30T08:40:41.759Z,78.50
2018-09-30T08:43:23.793Z,75.80
2018-09-30T08:46:05.283Z,73.50
2018-09-30T08:48:46.953Z,71.30
2018-09-30T08:51:28.561Z,71.40
2018-09-30T08:54:10.155Z,71.40
2018-09-30T08:56:51.841Z,70.60
2018-09-30T08:59:32.608Z,70.10
2018-09-30T09:02:13.798Z,70.80
2018-09-30T09:04:55.768Z,68.40
2018-09-30T09:07:38.381Z,67.30
2018-09-30T09:10:20.173Z,64.90
2018-09-30T09:13:01.673Z,63.80
2018-09-30T09:15:43.481Z,64.00
2018-09-30T09:18:26.078Z,63.60
2018-09-30T09:21:07.884Z,61.70
2018-09-30T09:23:49.370Z,61.80
2018-09-30T09:26:30.962Z,59.50
2018-09-30T09:29:13.210Z,60.70
2018-09-30T09:31:54.212Z,62.00
2018-09-30T09:34:36.778Z,61.70
2018-09-30T09:37:18.396Z,62.40
2018-09-30T09:40:00.008Z,62.20
2018-09-30T09:42:41.385Z,64.10
2018-09-30T09:45:23.077Z,65.80
2018-09-30T09:48:04.871Z,66.80
2018-09-30T09:50:46.970Z,68.60
2018-09-30T09:53:28.968Z,70.70
2018-09-30T09:56:10.657Z,72.00
2018-09-30T09:58:52.121Z,73.30
2018-09-30T10:01:33.429Z,74.00
2018-09-30T10:04:15.045Z,76.10
2018-09-30T10:06:56.529Z,76.30
2018-09-30T10:09:37.600Z,77.00
2018-09-30T10:12:18.756Z,77.40
2018-09-30T10:15:00.049Z,78.60
2018-09-30T10:17:41.628Z,78.10
2018-09-30T10:20:22.820Z,77.80
2018-09-30T10:23:04.089Z,78.10
2018-09-30T10:25:45.472Z,79.10
2018-09-30T10:28:27.263Z,79.40
2018-09-30T10:31:09.087Z,79.80
2018-09-30T10:33:50.366Z,79.70
2018-09-30T10:36:32.746Z,79.00
2018-09-30T10:39:13.860Z,78.20
2018-09-30T10:41:55.309Z,75.90
2018-09-30T10:44:36.914Z,75.30
2018-09-30T10:47:18.637Z,77.00
2018-09-30T10:50:00.382Z,77.70
2018-09-30T10:52:42.297Z,78.50
2018-09-30T10:55:23.964Z,74.30
2018-09-30T10:58:05.072Z,76.00
2018-09-30T11:00:46.538Z,76.70
2018-09-30T11:03:28.405Z,74.50
2018-09-30T11:06:10.135Z,75.80
2018-09-30T11:08:51.735Z,75.30
2018-09-30T11:11:33.602Z,74.20
2018-09-30T11:14:15.422Z,77.20
2018-09-30T11:16:57.214Z,77.00
2018-09-30T11:19:38.370Z,76.20
2018-09-30T11:22:19.277Z,77.00
2018-09-30T11:25:00.226Z,76.90
2018-09-30T11:27:41.499Z,78.30
2018-09-30T11:30:23.146Z,80.30
2018-09-30T11:33:04.076Z,81.10
2018-09-30T11:35:45.249Z,81.50
2018-09-30T11:38:26.926Z,80.30
2018-09-30T11:41:08.723Z,79.70
2018-09-30T11:43:50.541Z,77.60
2018-09-30T11:46:33.151Z,76.20
2018-09-30T11:49:15.094Z,79.20
2018-09-30T11:51:56.507Z,81.40
2018-09-30T11:54:38.529Z,78.80
2018-09-30T11:57:20.205Z,78.30
2018-09-30T12:00:02.110Z,79.70
2018-09-30T12:02:43.615Z,79.70
2018-09-30T12:05:25.075Z,77.40
2018-09-30T12:08:07.476Z,78.60
2018-09-30T12:10:48.697Z,80.20
2018-09-30T12:13:30.262Z,79.20
2018-09-30T12:16:11.460Z,78.70
2018-09-30T12:18:53.341Z,77.30
2018-09-30T12:21:34.702Z,77.50
2018-09-30T12:24:16.517Z,77.90
2018-09-30T12:26:57.365Z,78.80
2018-09-30T12:29:38.764Z,78.60
2018-09-30T12:32:21.027Z,78.20
2018-09-30T12:35:03.326Z,77.50
2018-09-30T12:37:44.257Z,76.70
2018-09-30T12:40:25.750Z,77.10
2018-09-30T12:43:07.556Z,76.30
2018-09-30T12:45:49.524Z,77.70
2018-09-30T12:48:30.581Z,76.50
2018-09-30T12:51:12.991Z,77.30
2018-09-30T12:53:55.041Z,77.20
2018-09-30T12:56:36.490Z,77.00
2018-09-30T12:59:18.193Z,77.80
2018-09-30T13:01:59.855Z,78.70
2018-09-30T13:04:41.683Z,79.70
2018-09-30T13:07:23.339Z,79.50
2018-09-30T13:10:05.056Z,80.30
2018-09-30T13:12:46.431Z,79.00
2018-09-30T13:15:28.930Z,78.90
2018-09-30T13:18:10.843Z,79.50
2018-09-30T13:20:53.008Z,79.20
2018-09-30T13:23:34.405Z,78.60
2018-09-30T13:26:15.805Z,78.90
2018-09-30T13:28:57.378Z,77.60
2018-09-30T13:31:38.684Z,78.30
2018-09-30T13:34:20.173Z,77.40
2018-09-30T13:37:02.098Z,77.80
2018-09-30T13:39:43.636Z,77.80
2018-09-30T13:42:25.674Z,77.20
2018-09-30T13:45:07.901Z,75.30
2018-09-30T13:47:49.039Z,75.10
2018-09-30T13:50:30.498Z,74.40
2018-09-30T13:53:12.005Z,74.40
2018-09-30T13:55:53.773Z,74.90
2018-09-30T13:58:35.548Z,75.70
2018-09-30T14:01:17.268Z,75.40
2018-09-30T14:03:58.848Z,75.70
2018-09-30T14:06:40.352Z,76.20
2018-09-30T14:09:21.925Z,76.70
2018-09-30T14:12:03.530Z,77.20
2018-09-30T14:14:45.189Z,78.80
2018-09-30T14:17:27.310Z,79.10
2018-09-30T14:20:09.012Z,79.00
2018-09-30T14:22:51.196Z,78.10
2018-09-30T14:25:32.187Z,77.90
2018-09-30T14:28:13.863Z,77.10
2018-09-30T14:30:55.739Z,76.30
2018-09-30T14:33:37.781Z,77.00
2018-09-30T14:36:18.830Z,76.70
2018-09-30T14:39:01.452Z,76.40
2018-09-30T14:41:44.334Z,76.30
2018-09-30T14:44:25.750Z,75.30
2018-09-30T14:47:07.363Z,76.20
2018-09-30T14:49:49.596Z,77.60
2018-09-30T14:52:30.844Z,79.10
2018-09-30T14:55:12.330Z,79.20
2018-09-30T14:57:53.815Z,79.70
2018-09-30T15:00:35.809Z,81.70
2018-09-30T15:03:17.276Z,82.50
2018-09-30T15:05:59.509Z,82.40
2018-09-30T15:08:40.584Z,83.20
2018-09-30T15:11:22.246Z,84.10
2018-09-30T15:14:04.424Z,85.10
2018-09-30T15:16:45.526Z,85.60
2018-09-30T15:19:26.908Z,85.50
2018-09-30T15:22:16.483Z,86.20
2018-09-30T15:24:58.316Z,86.20
2018-09-30T15:27:39.487Z,86.60
2018-09-30T15:30:20.963Z,86.60
2018-09-30T15:33:02.736Z,87.80
2018-09-30T15:35:44.529Z,88.20
2018-09-30T15:38:26.735Z,89.50
2018-09-30T15:41:07.539Z,90.10
2018-09-30T15:43:49.224Z,90.40
2018-09-30T15:46:31.351Z,90.70
2018-09-30T15:49:12.697Z,90.70
2018-09-30T15:51:54.703Z,91.20
2018-09-30T15:54:36.532Z,91.40
2018-09-30T15:57:17.369Z,91.50
2018-09-30T15:59:59.083Z,91.70
2018-09-30T16:02:40.547Z,91.80
2018-09-30T16:05:22.311Z,91.90
2018-09-30T16:08:04.376Z,92.10
2018-09-30T16:10:45.795Z,92.00
2018-09-30T16:13:27.178Z,92.10
2018-09-30T16:16:09.211Z,92.00
2018-09-30T16:18:50.264Z,92.40
2018-09-30T16:21:32.149Z,92.50
2018-09-30T16:24:13.842Z,92.60
2018-09-30T16:26:55.205Z,92.60
2018-09-30T16:29:37.015Z,92.90
2018-09-30T16:32:18.435Z,92.90
2018-09-30T16:35:00.074Z,92.90
2018-09-30T16:37:41.416Z,92.90
2018-09-30T16:40:23.166Z,92.70
2018-09-30T16:43:04.755Z,92.80
2018-09-30T16:48:54.073Z,92.90
2018-09-30T16:51:35.776Z,92.90
2018-09-30T16:54:17.528Z,93.10
2018-09-30T16:56:59.323Z,93.20
2018-09-30T16:59:40.938Z,93.30
2018-09-30T17:02:23.163Z,93.30
2018-09-30T17:05:04.834Z,93.50
2018-09-30T17:07:46.695Z,93.50
2018-09-30T17:10:28.203Z,93.30
2018-09-30T17:13:10.010Z,93.30
2018-09-30T17:15:51.405Z,93.40
2018-09-30T17:18:32.991Z,93.50
2018-09-30T17:21:13.752Z,93.50
2018-09-30T17:23:55.352Z,93.60
2018-09-30T17:26:36.835Z,93.70
2018-09-30T17:29:18.603Z,93.70
2018-09-30T17:32:00.277Z,93.80
2018-09-30T17:34:42.090Z,93.80
2018-09-30T17:37:24.068Z,93.80
2018-09-30T17:40:05.041Z,93.90
2018-09-30T17:42:46.247Z,93.90
2018-09-30T17:45:28.117Z,94.20
2018-09-30T17:48:09.501Z,94.40
2018-09-30T17:50:51.396Z,94.40
2018-09-30T17:53:33.907Z,94.40
2018-09-30T17:56:15.905Z,94.40
2018-09-30T17:58:58.351Z,94.70
2018-09-30T18:01:39.907Z,94.70
2018-09-30T18:04:21.312Z,94.70
2018-09-30T18:07:02.980Z,94.70
2018-09-30T18:09:44.591Z,94.80
2018-09-30T18:12:26.390Z,94.80
2018-09-30T18:15:07.739Z,94.90
2018-09-30T18:17:49.469Z,94.90
2018-09-30T18:20:30.820Z,94.90
2018-09-30T18:23:12.545Z,94.90
2018-09-30T18:25:54.327Z,95.00
2018-09-30T18:28:36.091Z,95.00
2018-09-30T18:31:17.375Z,95.00
2018-09-30T18:33:58.285Z,95.10
2018-09-30T18:36:40.177Z,95.10
2018-09-30T18:39:21.140Z,95.10
2018-09-30T18:42:02.875Z,95.30
2018-09-30T18:44:44.290Z,95.30
2018-09-30T18:47:25.578Z,95.40
2018-09-30T18:50:07.484Z,95.50
2018-09-30T18:52:49.060Z,95.70
2018-09-30T18:55:30.849Z,95.90
2018-09-30T18:58:12.371Z,96.00
2018-09-30T19:00:54.367Z,96.00
2018-09-30T19:03:35.841Z,95.90
2018-09-30T19:06:17.407Z,96.10
2018-09-30T19:08:58.817Z,96.20
2018-09-30T19:11:40.687Z,96.50
2018-09-30T19:14:22.280Z,96.50
2018-09-30T19:17:03.570Z,96.40
2018-09-30T19:19:45.146Z,96.50
2018-09-30T19:22:26.999Z,96.60
2018-09-30T19:25:07.855Z,96.60
2018-09-30T19:27:49.589Z,96.60
2018-09-30T19:30:31.359Z,96.60
2018-09-30T19:33:13.296Z,96.70
2018-09-30T19:35:54.702Z,96.80
2018-09-30T19:38:36.572Z,96.90
2018-09-30T19:41:18.180Z,97.00
2018-09-30T19:44:00.057Z,97.10
2018-09-30T19:46:41.864Z,97.10
2018-09-30T19:49:23.643Z,97.20
2018-09-30T19:52:05.541Z,97.40
2018-09-30T19:54:47.437Z,97.40
2018-09-30T19:57:28.874Z,97.30
2018-09-30T20:00:10.196Z,97.30
2018-09-30T20:02:52.541Z,97.30
2018-09-30T20:05:34.404Z,97.30
2018-09-30T20:08:16.021Z,97.30
2018-09-30T20:10:57.887Z,97.20
2018-09-30T20:13:39.099Z,97.10
2018-09-30T20:16:21.351Z,97.10
2018-09-30T20:19:02.352Z,97.00
2018-09-30T20:21:44.288Z,97.10
2018-09-30T20:24:26.034Z,97.20
2018-09-30T20:27:07.753Z,97.20
2018-09-30T20:29:49.319Z,97.30
2018-09-30T20:32:31.415Z,97.40
2018-09-30T20:35:13.824Z,97.40
2018-09-30T20:37:55.418Z,97.50
2018-09-30T20:40:37.103Z,97.80
2018-09-30T20:43:19.429Z,97.40
2018-09-30T20:46:01.955Z,97.30
2018-09-30T20:48:43.834Z,97.30
2018-09-30T20:51:25.503Z,97.50
2018-09-30T20:54:07.487Z,97.40
2018-09-30T20:56:49.193Z,97.40
2018-09-30T20:59:30.266Z,97.40
2018-09-30T21:02:12.410Z,97.40
2018-09-30T21:04:54.236Z,97.50
2018-09-30T21:07:36.806Z,97.50
2018-09-30T21:10:19.024Z,97.30
2018-09-30T21:13:00.776Z,97.30
2018-09-30T21:15:43.606Z,97.50
2018-09-30T21:18:25.204Z,97.50
2018-09-30T21:21:07.076Z,97.40
2018-09-30T21:23:49.202Z,97.30
2018-09-30T21:26:30.893Z,97.10
2018-09-30T21:29:12.247Z,96.90
2018-09-30T21:31:54.967Z,96.70
2018-09-30T21:34:36.656Z,96.40
2018-09-30T21:37:18.139Z,96.50
2018-09-30T21:40:00.347Z,96.60
2018-09-30T21:42:41.746Z,96.70
2018-09-30T21:45:23.213Z,96.70
2018-09-30T21:48:04.616Z,96.70
2018-09-30T21:50:45.487Z,96.90
2018-09-30T21:53:27.080Z,96.80
2018-09-30T21:59:17.838Z,96.60
2018-09-30T22:01:59.263Z,96.60
2018-09-30T22:04:40.874Z,96.80
2018-09-30T22:07:22.545Z,96.80
2018-09-30T22:10:04.234Z,96.80
2018-09-30T22:12:45.527Z,96.90
2018-09-30T22:15:27.231Z,96.80
2018-09-30T22:18:09.131Z,96.50
2018-09-30T22:20:50.693Z,96.10
2018-09-30T22:23:32.416Z,96.00
2018-09-30T22:26:14.174Z,96.30
2018-09-30T22:28:55.793Z,96.50
2018-09-30T22:31:37.967Z,96.40
2018-09-30T22:34:19.070Z,96.60
2018-09-30T22:37:00.969Z,96.80
2018-09-30T22:39:42.367Z,97.00
2018-09-30T22:42:24.832Z,97.10
2018-09-30T22:45:06.039Z,97.10
2018-09-30T22:47:47.807Z,97.20
2018-09-30T22:50:29.392Z,97.20
2018-09-30T22:53:10.942Z,97.20
2018-09-30T22:55:52.390Z,97.10
2018-09-30T22:58:34.260Z,97.00
2018-09-30T23:01:15.954Z,96.90
2018-09-30T23:03:57.543Z,97.00
2018-09-30T23:06:39.671Z,97.20
2018-09-30T23:09:20.750Z,97.10
2018-09-30T23:12:03.123Z,97.20
2018-09-30T23:14:44.898Z,97.20
2018-09-30T23:17:27.839Z,97.20
2018-09-30T23:20:15.469Z,97.30
2018-09-30T23:22:56.675Z,97.30
2018-09-30T23:25:38.951Z,97.40
2018-09-30T23:28:20.189Z,97.40
2018-09-30T23:31:01.961Z,97.20
2018-09-30T23:33:43.773Z,97.40
2018-09-30T23:36:25.242Z,97.50
2018-09-30T23:39:06.895Z,97.70
2018-09-30T23:41:48.818Z,97.80
2018-09-30T23:44:30.388Z,98.00
2018-09-30T23:47:12.070Z,98.10
2018-09-30T23:49:54.138Z,98.00
2018-09-30T23:52:35.060Z,98.60
2018-09-30T23:55:16.656Z,98.50
2018-09-30T23:57:58.473Z,98.60
